sensor_id;sensor_type;location;lat;lon;timestamp;P1;durP1;ratioP1;P2;durP2;ratioP2
3299;SDS011;1662;49.310;8.134;2023-07-13T00:01:25;5.33;;;5.03;;
3299;SDS011;1662;49.310;8.134;2023-07-13T00:03:51;6.60;;;5.33;;
3299;SDS011;1662;49.310;8.134;2023-07-13T00:06:17;5.80;;;5.40;;
3299;SDS011;1662;49.310;8.134;2023-07-13T00:08:44;5.20;;;5.10;;
3299;SDS011;1662;49.310;8.134;2023-07-13T00:11:10;5.20;;;5.10;;
3299;SDS011;1662;49.310;8.134;2023-07-13T00:13:36;5.63;;;5.33;;
3299;SDS011;1662;49.310;8.134;2023-07-13T00:16:04;5.70;;;5.40;;
3299;SDS011;1662;49.310;8.134;2023-07-13T00:18:30;5.40;;;5.10;;
3299;SDS011;1662;49.310;8.134;2023-07-13T00:20:58;5.60;;;5.30;;
3299;SDS011;1662;49.310;8.134;2023-07-13T00:23:30;6.23;;;5.70;;
3299;SDS011;1662;49.310;8.134;2023-07-13T00:25:58;5.23;;;5.00;;
3299;SDS011;1662;49.310;8.134;2023-07-13T00:28:27;5.73;;;5.40;;
3299;SDS011;1662;49.310;8.134;2023-07-13T00:30:52;5.63;;;5.20;;
3299;SDS011;1662;49.310;8.134;2023-07-13T00:33:19;5.47;;;5.17;;
3299;SDS011;1662;49.310;8.134;2023-07-13T00:35:45;6.10;;;5.70;;
3299;SDS011;1662;49.310;8.134;2023-07-13T00:38:10;5.67;;;5.27;;
3299;SDS011;1662;49.310;8.134;2023-07-13T00:40:36;5.83;;;5.53;;
3299;SDS011;1662;49.310;8.134;2023-07-13T00:43:02;5.33;;;4.97;;
3299;SDS011;1662;49.310;8.134;2023-07-13T00:47:55;6.20;;;5.77;;
3299;SDS011;1662;49.310;8.134;2023-07-13T00:50:22;5.77;;;5.37;;
3299;SDS011;1662;49.310;8.134;2023-07-13T00:52:50;5.27;;;5.10;;
3299;SDS011;1662;49.310;8.134;2023-07-13T00:55:22;5.77;;;5.47;;
3299;SDS011;1662;49.310;8.134;2023-07-13T00:57:50;5.67;;;5.10;;
3299;SDS011;1662;49.310;8.134;2023-07-13T01:00:16;5.77;;;5.37;;
3299;SDS011;1662;49.310;8.134;2023-07-13T01:02:43;5.47;;;5.30;;
3299;SDS011;1662;49.310;8.134;2023-07-13T01:07:39;5.63;;;5.30;;
3299;SDS011;1662;49.310;8.134;2023-07-13T01:10:07;5.83;;;5.43;;
3299;SDS011;1662;49.310;8.134;2023-07-13T01:12:33;5.67;;;5.37;;
3299;SDS011;1662;49.310;8.134;2023-07-13T01:15:00;5.67;;;5.30;;
3299;SDS011;1662;49.310;8.134;2023-07-13T01:17:27;5.60;;;5.20;;
3299;SDS011;1662;49.310;8.134;2023-07-13T01:19:53;5.40;;;5.10;;
3299;SDS011;1662;49.310;8.134;2023-07-13T01:22:20;5.77;;;5.50;;
3299;SDS011;1662;49.310;8.134;2023-07-13T01:24:50;5.10;;;5.00;;
3299;SDS011;1662;49.310;8.134;2023-07-13T01:27:17;5.50;;;5.20;;
3299;SDS011;1662;49.310;8.134;2023-07-13T01:29:46;5.53;;;5.33;;
3299;SDS011;1662;49.310;8.134;2023-07-13T01:32:16;5.23;;;4.93;;
3299;SDS011;1662;49.310;8.134;2023-07-13T01:34:49;5.73;;;5.43;;
3299;SDS011;1662;49.310;8.134;2023-07-13T01:37:19;6.07;;;5.53;;
3299;SDS011;1662;49.310;8.134;2023-07-13T01:39:45;5.87;;;5.47;;
3299;SDS011;1662;49.310;8.134;2023-07-13T01:42:11;5.87;;;5.50;;
3299;SDS011;1662;49.310;8.134;2023-07-13T01:44:37;5.53;;;5.33;;
3299;SDS011;1662;49.310;8.134;2023-07-13T01:47:03;5.20;;;4.90;;
3299;SDS011;1662;49.310;8.134;2023-07-13T01:49:29;5.77;;;5.47;;
3299;SDS011;1662;49.310;8.134;2023-07-13T01:51:55;6.03;;;5.37;;
3299;SDS011;1662;49.310;8.134;2023-07-13T01:54:20;5.77;;;5.23;;
3299;SDS011;1662;49.310;8.134;2023-07-13T01:56:46;5.27;;;5.07;;
3299;SDS011;1662;49.310;8.134;2023-07-13T01:59:11;5.90;;;5.53;;
3299;SDS011;1662;49.310;8.134;2023-07-13T02:01:37;5.40;;;5.10;;
3299;SDS011;1662;49.310;8.134;2023-07-13T02:04:03;6.43;;;5.87;;
3299;SDS011;1662;49.310;8.134;2023-07-13T02:06:28;5.17;;;4.87;;
3299;SDS011;1662;49.310;8.134;2023-07-13T02:08:54;5.50;;;5.20;;
3299;SDS011;1662;49.310;8.134;2023-07-13T02:11:20;5.67;;;5.27;;
3299;SDS011;1662;49.310;8.134;2023-07-13T02:13:45;5.63;;;5.13;;
3299;SDS011;1662;49.310;8.134;2023-07-13T02:16:13;5.30;;;5.10;;
3299;SDS011;1662;49.310;8.134;2023-07-13T02:18:39;5.00;;;4.70;;
3299;SDS011;1662;49.310;8.134;2023-07-13T02:21:05;5.27;;;5.07;;
3299;SDS011;1662;49.310;8.134;2023-07-13T02:23:31;5.63;;;5.20;;
3299;SDS011;1662;49.310;8.134;2023-07-13T02:25:57;5.43;;;5.13;;
3299;SDS011;1662;49.310;8.134;2023-07-13T02:28:23;5.30;;;5.00;;
3299;SDS011;1662;49.310;8.134;2023-07-13T02:30:49;5.70;;;5.30;;
3299;SDS011;1662;49.310;8.134;2023-07-13T02:33:15;5.80;;;5.37;;
3299;SDS011;1662;49.310;8.134;2023-07-13T02:35:41;5.83;;;5.30;;
3299;SDS011;1662;49.310;8.134;2023-07-13T02:38:07;5.57;;;5.20;;
3299;SDS011;1662;49.310;8.134;2023-07-13T02:40:33;5.70;;;5.20;;
3299;SDS011;1662;49.310;8.134;2023-07-13T02:43:00;5.60;;;5.20;;
3299;SDS011;1662;49.310;8.134;2023-07-13T02:45:26;5.40;;;5.20;;
3299;SDS011;1662;49.310;8.134;2023-07-13T02:47:52;5.00;;;4.77;;
3299;SDS011;1662;49.310;8.134;2023-07-13T02:50:17;5.40;;;5.03;;
3299;SDS011;1662;49.310;8.134;2023-07-13T02:52:43;4.57;;;4.37;;
3299;SDS011;1662;49.310;8.134;2023-07-13T02:55:09;4.67;;;4.57;;
3299;SDS011;1662;49.310;8.134;2023-07-13T02:57:35;6.13;;;5.10;;
3299;SDS011;1662;49.310;8.134;2023-07-13T03:00:03;6.20;;;5.63;;
3299;SDS011;1662;49.310;8.134;2023-07-13T03:02:33;5.17;;;4.80;;
3299;SDS011;1662;49.310;8.134;2023-07-13T03:04:59;5.30;;;5.10;;
3299;SDS011;1662;49.310;8.134;2023-07-13T03:07:25;5.23;;;4.80;;
3299;SDS011;1662;49.310;8.134;2023-07-13T03:09:57;5.33;;;5.00;;
3299;SDS011;1662;49.310;8.134;2023-07-13T03:12:23;5.30;;;5.10;;
3299;SDS011;1662;49.310;8.134;2023-07-13T03:14:49;4.90;;;4.50;;
3299;SDS011;1662;49.310;8.134;2023-07-13T03:17:15;5.13;;;4.93;;
3299;SDS011;1662;49.310;8.134;2023-07-13T03:19:41;4.87;;;4.63;;
3299;SDS011;1662;49.310;8.134;2023-07-13T03:22:07;5.10;;;5.00;;
3299;SDS011;1662;49.310;8.134;2023-07-13T03:24:33;8.90;;;5.20;;
3299;SDS011;1662;49.310;8.134;2023-07-13T03:27:00;4.80;;;4.60;;
3299;SDS011;1662;49.310;8.134;2023-07-13T03:29:26;4.67;;;4.47;;
3299;SDS011;1662;49.310;8.134;2023-07-13T03:31:52;4.53;;;4.23;;
3299;SDS011;1662;49.310;8.134;2023-07-13T03:34:18;4.90;;;4.70;;
3299;SDS011;1662;49.310;8.134;2023-07-13T03:36:43;5.20;;;4.90;;
3299;SDS011;1662;49.310;8.134;2023-07-13T03:39:09;5.20;;;4.33;;
3299;SDS011;1662;49.310;8.134;2023-07-13T03:41:35;5.37;;;5.07;;
3299;SDS011;1662;49.310;8.134;2023-07-13T03:44:00;4.23;;;4.03;;
3299;SDS011;1662;49.310;8.134;2023-07-13T03:46:26;5.00;;;4.70;;
3299;SDS011;1662;49.310;8.134;2023-07-13T03:48:52;4.67;;;4.43;;
3299;SDS011;1662;49.310;8.134;2023-07-13T03:51:17;4.40;;;4.20;;
3299;SDS011;1662;49.310;8.134;2023-07-13T03:53:44;7.53;;;5.03;;
3299;SDS011;1662;49.310;8.134;2023-07-13T03:56:14;5.00;;;4.67;;
3299;SDS011;1662;49.310;8.134;2023-07-13T03:58:43;3.80;;;3.40;;
3299;SDS011;1662;49.310;8.134;2023-07-13T04:01:11;2.57;;;2.37;;
3299;SDS011;1662;49.310;8.134;2023-07-13T04:03:37;5.00;;;3.30;;
3299;SDS011;1662;49.310;8.134;2023-07-13T04:06:05;5.17;;;4.20;;
3299;SDS011;1662;49.310;8.134;2023-07-13T04:08:33;4.40;;;4.10;;
3299;SDS011;1662;49.310;8.134;2023-07-13T04:11:01;4.97;;;4.63;;
3299;SDS011;1662;49.310;8.134;2023-07-13T04:13:27;4.30;;;3.70;;
3299;SDS011;1662;49.310;8.134;2023-07-13T04:15:55;5.13;;;4.87;;
3299;SDS011;1662;49.310;8.134;2023-07-13T04:18:21;4.47;;;4.10;;
3299;SDS011;1662;49.310;8.134;2023-07-13T04:20:49;7.73;;;3.87;;
3299;SDS011;1662;49.310;8.134;2023-07-13T04:23:16;6.57;;;4.57;;
3299;SDS011;1662;49.310;8.134;2023-07-13T04:25:46;4.43;;;4.13;;
3299;SDS011;1662;49.310;8.134;2023-07-13T04:28:14;4.20;;;3.80;;
3299;SDS011;1662;49.310;8.134;2023-07-13T04:30:40;4.07;;;3.60;;
3299;SDS011;1662;49.310;8.134;2023-07-13T04:33:06;3.87;;;3.57;;
3299;SDS011;1662;49.310;8.134;2023-07-13T04:35:33;3.87;;;3.70;;
3299;SDS011;1662;49.310;8.134;2023-07-13T04:38:00;3.50;;;3.30;;
3299;SDS011;1662;49.310;8.134;2023-07-13T04:40:26;6.90;;;4.03;;
3299;SDS011;1662;49.310;8.134;2023-07-13T04:42:53;4.60;;;4.20;;
3299;SDS011;1662;49.310;8.134;2023-07-13T04:45:18;4.30;;;3.90;;
3299;SDS011;1662;49.310;8.134;2023-07-13T04:47:44;4.20;;;4.00;;
3299;SDS011;1662;49.310;8.134;2023-07-13T04:50:12;4.03;;;3.70;;
3299;SDS011;1662;49.310;8.134;2023-07-13T04:52:40;3.60;;;3.37;;
3299;SDS011;1662;49.310;8.134;2023-07-13T04:55:07;3.77;;;3.50;;
3299;SDS011;1662;49.310;8.134;2023-07-13T04:57:33;4.33;;;4.00;;
3299;SDS011;1662;49.310;8.134;2023-07-13T04:59:58;3.63;;;3.43;;
3299;SDS011;1662;49.310;8.134;2023-07-13T05:02:30;4.43;;;4.23;;
3299;SDS011;1662;49.310;8.134;2023-07-13T05:04:56;4.00;;;3.67;;
3299;SDS011;1662;49.310;8.134;2023-07-13T05:07:22;4.23;;;4.03;;
3299;SDS011;1662;49.310;8.134;2023-07-13T05:09:51;3.37;;;3.07;;
3299;SDS011;1662;49.310;8.134;2023-07-13T05:12:17;7.63;;;4.60;;
3299;SDS011;1662;49.310;8.134;2023-07-13T05:14:43;4.33;;;4.03;;
3299;SDS011;1662;49.310;8.134;2023-07-13T05:17:09;5.17;;;3.67;;
3299;SDS011;1662;49.310;8.134;2023-07-13T05:19:34;5.33;;;3.90;;
3299;SDS011;1662;49.310;8.134;2023-07-13T05:22:00;4.83;;;4.43;;
3299;SDS011;1662;49.310;8.134;2023-07-13T05:24:30;7.03;;;3.90;;
3299;SDS011;1662;49.310;8.134;2023-07-13T05:26:56;3.93;;;3.63;;
3299;SDS011;1662;49.310;8.134;2023-07-13T05:29:21;4.00;;;3.60;;
3299;SDS011;1662;49.310;8.134;2023-07-13T05:31:47;5.77;;;3.97;;
3299;SDS011;1662;49.310;8.134;2023-07-13T05:34:13;5.40;;;4.27;;
3299;SDS011;1662;49.310;8.134;2023-07-13T05:36:40;3.90;;;3.60;;
3299;SDS011;1662;49.310;8.134;2023-07-13T05:39:05;3.90;;;3.60;;
3299;SDS011;1662;49.310;8.134;2023-07-13T05:41:31;5.37;;;4.40;;
3299;SDS011;1662;49.310;8.134;2023-07-13T05:43:59;3.87;;;3.73;;
3299;SDS011;1662;49.310;8.134;2023-07-13T05:46:25;3.97;;;3.70;;
3299;SDS011;1662;49.310;8.134;2023-07-13T05:48:51;4.00;;;3.80;;
3299;SDS011;1662;49.310;8.134;2023-07-13T05:51:16;10.70;;;4.30;;
3299;SDS011;1662;49.310;8.134;2023-07-13T05:53:42;4.07;;;3.73;;
3299;SDS011;1662;49.310;8.134;2023-07-13T05:56:07;6.13;;;4.10;;
3299;SDS011;1662;49.310;8.134;2023-07-13T05:58:33;4.10;;;3.90;;
3299;SDS011;1662;49.310;8.134;2023-07-13T06:01:04;8.93;;;3.83;;
3299;SDS011;1662;49.310;8.134;2023-07-13T06:03:31;3.93;;;3.63;;
3299;SDS011;1662;49.310;8.134;2023-07-13T06:05:58;4.20;;;3.80;;
3299;SDS011;1662;49.310;8.134;2023-07-13T06:08:25;3.67;;;3.57;;
3299;SDS011;1662;49.310;8.134;2023-07-13T06:10:51;3.67;;;3.43;;
3299;SDS011;1662;49.310;8.134;2023-07-13T06:13:17;3.87;;;3.50;;
3299;SDS011;1662;49.310;8.134;2023-07-13T06:15:47;3.97;;;3.77;;
3299;SDS011;1662;49.310;8.134;2023-07-13T06:18:14;5.43;;;3.50;;
3299;SDS011;1662;49.310;8.134;2023-07-13T06:20:39;4.30;;;3.80;;
3299;SDS011;1662;49.310;8.134;2023-07-13T06:23:05;3.67;;;3.47;;
3299;SDS011;1662;49.310;8.134;2023-07-13T06:25:31;3.57;;;3.37;;
3299;SDS011;1662;49.310;8.134;2023-07-13T06:27:57;4.80;;;3.57;;
3299;SDS011;1662;49.310;8.134;2023-07-13T06:30:22;3.53;;;3.23;;
3299;SDS011;1662;49.310;8.134;2023-07-13T06:32:48;6.40;;;3.80;;
3299;SDS011;1662;49.310;8.134;2023-07-13T06:35:14;3.10;;;3.00;;
3299;SDS011;1662;49.310;8.134;2023-07-13T06:37:40;3.30;;;3.00;;
3299;SDS011;1662;49.310;8.134;2023-07-13T06:40:06;5.20;;;3.00;;
3299;SDS011;1662;49.310;8.134;2023-07-13T06:42:32;3.77;;;3.40;;
3299;SDS011;1662;49.310;8.134;2023-07-13T06:44:58;3.63;;;3.37;;
3299;SDS011;1662;49.310;8.134;2023-07-13T06:47:26;6.20;;;3.23;;
3299;SDS011;1662;49.310;8.134;2023-07-13T06:49:52;3.13;;;2.93;;
3299;SDS011;1662;49.310;8.134;2023-07-13T06:52:17;3.63;;;3.40;;
3299;SDS011;1662;49.310;8.134;2023-07-13T06:54:43;3.63;;;2.83;;
3299;SDS011;1662;49.310;8.134;2023-07-13T06:57:09;5.33;;;3.67;;
3299;SDS011;1662;49.310;8.134;2023-07-13T06:59:34;10.43;;;4.33;;
3299;SDS011;1662;49.310;8.134;2023-07-13T07:02:00;5.20;;;3.43;;
3299;SDS011;1662;49.310;8.134;2023-07-13T07:04:25;5.07;;;3.50;;
3299;SDS011;1662;49.310;8.134;2023-07-13T07:06:51;4.20;;;3.43;;
3299;SDS011;1662;49.310;8.134;2023-07-13T07:09:17;4.67;;;3.00;;
3299;SDS011;1662;49.310;8.134;2023-07-13T07:11:42;4.47;;;3.23;;
3299;SDS011;1662;49.310;8.134;2023-07-13T07:14:08;6.03;;;3.10;;
3299;SDS011;1662;49.310;8.134;2023-07-13T07:16:34;3.40;;;3.10;;
3299;SDS011;1662;49.310;8.134;2023-07-13T07:18:59;7.70;;;3.50;;
3299;SDS011;1662;49.310;8.134;2023-07-13T07:21:25;5.83;;;3.20;;
3299;SDS011;1662;49.310;8.134;2023-07-13T07:23:51;2.70;;;2.50;;
3299;SDS011;1662;49.310;8.134;2023-07-13T07:26:17;3.30;;;3.10;;
3299;SDS011;1662;49.310;8.134;2023-07-13T07:28:43;4.23;;;3.37;;
3299;SDS011;1662;49.310;8.134;2023-07-13T07:31:08;3.00;;;2.80;;
3299;SDS011;1662;49.310;8.134;2023-07-13T07:33:34;3.53;;;2.87;;
3299;SDS011;1662;49.310;8.134;2023-07-13T07:36:00;2.97;;;2.80;;
3299;SDS011;1662;49.310;8.134;2023-07-13T07:38:26;7.80;;;4.20;;
3299;SDS011;1662;49.310;8.134;2023-07-13T07:40:54;3.67;;;3.37;;
3299;SDS011;1662;49.310;8.134;2023-07-13T07:43:20;3.40;;;3.20;;
3299;SDS011;1662;49.310;8.134;2023-07-13T07:45:45;3.60;;;3.40;;
3299;SDS011;1662;49.310;8.134;2023-07-13T07:48:11;6.20;;;3.40;;
3299;SDS011;1662;49.310;8.134;2023-07-13T07:50:37;3.80;;;3.43;;
3299;SDS011;1662;49.310;8.134;2023-07-13T07:53:04;3.60;;;3.30;;
3299;SDS011;1662;49.310;8.134;2023-07-13T07:55:32;5.07;;;3.73;;
3299;SDS011;1662;49.310;8.134;2023-07-13T07:58:02;6.83;;;3.87;;
3299;SDS011;1662;49.310;8.134;2023-07-13T08:00:28;3.67;;;3.20;;
3299;SDS011;1662;49.310;8.134;2023-07-13T08:02:56;9.90;;;4.10;;
3299;SDS011;1662;49.310;8.134;2023-07-13T08:05:22;4.03;;;3.70;;
3299;SDS011;1662;49.310;8.134;2023-07-13T08:07:47;3.87;;;3.57;;
3299;SDS011;1662;49.310;8.134;2023-07-13T08:10:13;5.00;;;4.00;;
3299;SDS011;1662;49.310;8.134;2023-07-13T08:12:39;3.80;;;3.50;;
3299;SDS011;1662;49.310;8.134;2023-07-13T08:15:06;3.70;;;3.40;;
3299;SDS011;1662;49.310;8.134;2023-07-13T08:17:48;4.50;;;4.10;;
3299;SDS011;1662;49.310;8.134;2023-07-13T08:20:16;4.60;;;4.13;;
3299;SDS011;1662;49.310;8.134;2023-07-13T08:22:41;6.70;;;3.97;;
3299;SDS011;1662;49.310;8.134;2023-07-13T08:25:07;4.13;;;3.87;;
3299;SDS011;1662;49.310;8.134;2023-07-13T08:27:33;3.37;;;3.27;;
3299;SDS011;1662;49.310;8.134;2023-07-13T08:30:01;5.27;;;4.00;;
3299;SDS011;1662;49.310;8.134;2023-07-13T08:32:27;4.57;;;4.23;;
3299;SDS011;1662;49.310;8.134;2023-07-13T08:34:53;4.37;;;3.97;;
3299;SDS011;1662;49.310;8.134;2023-07-13T08:37:21;4.40;;;4.10;;
3299;SDS011;1662;49.310;8.134;2023-07-13T08:39:47;6.80;;;4.60;;
3299;SDS011;1662;49.310;8.134;2023-07-13T08:45:13;4.73;;;4.33;;
3299;SDS011;1662;49.310;8.134;2023-07-13T08:50:26;4.50;;;4.30;;
3299;SDS011;1662;49.310;8.134;2023-07-13T08:52:55;4.40;;;4.30;;
3299;SDS011;1662;49.310;8.134;2023-07-13T08:55:24;4.80;;;4.23;;
3299;SDS011;1662;49.310;8.134;2023-07-13T08:58:05;5.07;;;4.67;;
3299;SDS011;1662;49.310;8.134;2023-07-13T09:03:24;4.97;;;4.70;;
3299;SDS011;1662;49.310;8.134;2023-07-13T09:05:54;4.67;;;4.30;;
3299;SDS011;1662;49.310;8.134;2023-07-13T09:08:43;4.90;;;4.60;;
3299;SDS011;1662;49.310;8.134;2023-07-13T09:16:46;5.33;;;4.80;;
3299;SDS011;1662;49.310;8.134;2023-07-13T09:19:15;5.90;;;5.47;;
3299;SDS011;1662;49.310;8.134;2023-07-13T09:21:48;7.33;;;5.20;;
3299;SDS011;1662;49.310;8.134;2023-07-13T09:26:59;5.27;;;4.70;;
3299;SDS011;1662;49.310;8.134;2023-07-13T09:29:30;4.93;;;4.83;;
3299;SDS011;1662;49.310;8.134;2023-07-13T09:32:01;5.00;;;4.70;;
3299;SDS011;1662;49.310;8.134;2023-07-13T09:34:30;5.67;;;5.43;;
3299;SDS011;1662;49.310;8.134;2023-07-13T09:36:58;5.60;;;5.27;;
3299;SDS011;1662;49.310;8.134;2023-07-13T09:39:32;5.20;;;5.00;;
3299;SDS011;1662;49.310;8.134;2023-07-13T09:42:05;5.50;;;5.27;;
3299;SDS011;1662;49.310;8.134;2023-07-13T09:47:20;5.50;;;5.30;;
3299;SDS011;1662;49.310;8.134;2023-07-13T09:49:58;6.27;;;5.83;;
3299;SDS011;1662;49.310;8.134;2023-07-13T09:52:42;5.70;;;5.27;;
3299;SDS011;1662;49.310;8.134;2023-07-13T09:58:42;6.07;;;5.57;;
3299;SDS011;1662;49.310;8.134;2023-07-13T10:00:57;6.50;;;6.00;;
3299;SDS011;1662;49.310;8.134;2023-07-13T10:03:32;4.93;;;4.73;;
3299;SDS011;1662;49.310;8.134;2023-07-13T10:06:13;6.07;;;5.57;;
3299;SDS011;1662;49.310;8.134;2023-07-13T10:08:41;6.33;;;6.03;;
3299;SDS011;1662;49.310;8.134;2023-07-13T10:13:37;5.90;;;5.60;;
3299;SDS011;1662;49.310;8.134;2023-07-13T10:16:07;7.77;;;5.83;;
3299;SDS011;1662;49.310;8.134;2023-07-13T10:18:39;5.80;;;5.50;;
3299;SDS011;1662;49.310;8.134;2023-07-13T10:21:19;5.70;;;5.50;;
3299;SDS011;1662;49.310;8.134;2023-07-13T10:23:48;6.80;;;6.30;;
3299;SDS011;1662;49.310;8.134;2023-07-13T10:26:25;6.80;;;6.20;;
3299;SDS011;1662;49.310;8.134;2023-07-13T10:28:55;6.40;;;6.10;;
3299;SDS011;1662;49.310;8.134;2023-07-13T10:31:24;6.07;;;5.77;;
3299;SDS011;1662;49.310;8.134;2023-07-13T10:33:50;5.87;;;5.60;;
3299;SDS011;1662;49.310;8.134;2023-07-13T10:39:04;7.20;;;6.53;;
3299;SDS011;1662;49.310;8.134;2023-07-13T10:41:35;6.10;;;5.70;;
3299;SDS011;1662;49.310;8.134;2023-07-13T10:44:05;6.00;;;5.80;;
3299;SDS011;1662;49.310;8.134;2023-07-13T10:46:46;6.27;;;6.07;;
3299;SDS011;1662;49.310;8.134;2023-07-13T10:49:13;6.40;;;6.20;;
3299;SDS011;1662;49.310;8.134;2023-07-13T10:51:40;7.37;;;7.07;;
3299;SDS011;1662;49.310;8.134;2023-07-13T10:56:48;6.37;;;6.07;;
3299;SDS011;1662;49.310;8.134;2023-07-13T11:04:19;7.00;;;6.60;;
3299;SDS011;1662;49.310;8.134;2023-07-13T11:06:47;6.83;;;6.60;;
3299;SDS011;1662;49.310;8.134;2023-07-13T11:12:07;7.73;;;7.13;;
3299;SDS011;1662;49.310;8.134;2023-07-13T11:14:42;7.40;;;7.00;;
3299;SDS011;1662;49.310;8.134;2023-07-13T11:20:40;7.00;;;6.30;;
3299;SDS011;1662;49.310;8.134;2023-07-13T11:22:46;6.93;;;6.30;;
3299;SDS011;1662;49.310;8.134;2023-07-13T11:30:38;7.40;;;7.00;;
3299;SDS011;1662;49.310;8.134;2023-07-13T11:38:19;6.50;;;6.30;;
3299;SDS011;1662;49.310;8.134;2023-07-13T11:40:56;7.10;;;6.70;;
3299;SDS011;1662;49.310;8.134;2023-07-13T11:43:28;6.23;;;5.93;;
3299;SDS011;1662;49.310;8.134;2023-07-13T11:45:53;7.37;;;6.93;;
3299;SDS011;1662;49.310;8.134;2023-07-13T11:48:23;7.60;;;7.10;;
3299;SDS011;1662;49.310;8.134;2023-07-13T11:50:51;7.90;;;7.40;;
3299;SDS011;1662;49.310;8.134;2023-07-13T11:53:26;6.60;;;6.30;;
3299;SDS011;1662;49.310;8.134;2023-07-13T11:55:53;7.03;;;6.80;;
3299;SDS011;1662;49.310;8.134;2023-07-13T11:58:21;6.80;;;6.50;;
3299;SDS011;1662;49.310;8.134;2023-07-13T12:00:49;7.47;;;7.00;;
3299;SDS011;1662;49.310;8.134;2023-07-13T12:03:18;7.17;;;6.70;;
3299;SDS011;1662;49.310;8.134;2023-07-13T12:05:55;7.30;;;6.80;;
3299;SDS011;1662;49.310;8.134;2023-07-13T12:08:30;6.40;;;6.10;;
3299;SDS011;1662;49.310;8.134;2023-07-13T12:11:04;8.13;;;6.30;;
3299;SDS011;1662;49.310;8.134;2023-07-13T12:13:37;8.07;;;7.57;;
3299;SDS011;1662;49.310;8.134;2023-07-13T12:16:09;7.40;;;6.90;;
3299;SDS011;1662;49.310;8.134;2023-07-13T12:18:57;6.10;;;5.90;;
3299;SDS011;1662;49.310;8.134;2023-07-13T12:21:28;7.13;;;6.63;;
3299;SDS011;1662;49.310;8.134;2023-07-13T12:23:57;7.67;;;7.03;;
3299;SDS011;1662;49.310;8.134;2023-07-13T12:26:22;6.63;;;6.30;;
3299;SDS011;1662;49.310;8.134;2023-07-13T12:31:29;6.20;;;6.00;;
3299;SDS011;1662;49.310;8.134;2023-07-13T12:34:06;6.87;;;6.57;;
3299;SDS011;1662;49.310;8.134;2023-07-13T12:36:36;7.50;;;6.60;;
3299;SDS011;1662;49.310;8.134;2023-07-13T12:39:13;6.50;;;6.30;;
3299;SDS011;1662;49.310;8.134;2023-07-13T12:41:51;7.27;;;6.80;;
3299;SDS011;1662;49.310;8.134;2023-07-13T12:44:29;7.50;;;6.70;;
3299;SDS011;1662;49.310;8.134;2023-07-13T12:46:58;7.00;;;6.80;;
3299;SDS011;1662;49.310;8.134;2023-07-13T12:49:30;6.97;;;6.67;;
3299;SDS011;1662;49.310;8.134;2023-07-13T12:52:00;7.43;;;7.03;;
3299;SDS011;1662;49.310;8.134;2023-07-13T12:54:28;7.57;;;7.07;;
3299;SDS011;1662;49.310;8.134;2023-07-13T12:56:54;7.20;;;6.80;;
3299;SDS011;1662;49.310;8.134;2023-07-13T12:59:23;8.10;;;7.57;;
3299;SDS011;1662;49.310;8.134;2023-07-13T13:01:53;7.03;;;6.73;;
3299;SDS011;1662;49.310;8.134;2023-07-13T13:04:18;6.57;;;6.37;;
3299;SDS011;1662;49.310;8.134;2023-07-13T13:06:48;6.30;;;5.90;;
3299;SDS011;1662;49.310;8.134;2023-07-13T13:09:15;7.63;;;7.23;;
3299;SDS011;1662;49.310;8.134;2023-07-13T13:11:43;7.30;;;7.00;;
3299;SDS011;1662;49.310;8.134;2023-07-13T13:14:09;7.73;;;7.43;;
3299;SDS011;1662;49.310;8.134;2023-07-13T13:16:46;6.93;;;6.63;;
3299;SDS011;1662;49.310;8.134;2023-07-13T13:19:18;7.20;;;6.60;;
3299;SDS011;1662;49.310;8.134;2023-07-13T13:21:48;6.70;;;6.40;;
3299;SDS011;1662;49.310;8.134;2023-07-13T13:24:18;6.73;;;6.43;;
3299;SDS011;1662;49.310;8.134;2023-07-13T13:26:46;6.73;;;6.33;;
3299;SDS011;1662;49.310;8.134;2023-07-13T13:29:20;7.50;;;7.10;;
3299;SDS011;1662;49.310;8.134;2023-07-13T13:31:49;7.00;;;6.80;;
3299;SDS011;1662;49.310;8.134;2023-07-13T13:34:16;7.13;;;6.53;;
3299;SDS011;1662;49.310;8.134;2023-07-13T13:36:43;7.90;;;7.50;;
3299;SDS011;1662;49.310;8.134;2023-07-13T13:41:44;7.53;;;7.00;;
3299;SDS011;1662;49.310;8.134;2023-07-13T13:44:10;7.73;;;7.23;;
3299;SDS011;1662;49.310;8.134;2023-07-13T13:46:35;7.73;;;7.47;;
3299;SDS011;1662;49.310;8.134;2023-07-13T13:49:01;7.43;;;7.13;;
3299;SDS011;1662;49.310;8.134;2023-07-13T13:51:27;7.10;;;6.90;;
3299;SDS011;1662;49.310;8.134;2023-07-13T13:53:54;7.23;;;6.87;;
3299;SDS011;1662;49.310;8.134;2023-07-13T13:56:20;7.93;;;7.60;;
3299;SDS011;1662;49.310;8.134;2023-07-13T13:58:46;6.90;;;6.47;;
3299;SDS011;1662;49.310;8.134;2023-07-13T14:01:21;7.50;;;7.10;;
3299;SDS011;1662;49.310;8.134;2023-07-13T14:03:49;6.30;;;6.00;;
3299;SDS011;1662;49.310;8.134;2023-07-13T14:06:16;8.57;;;7.83;;
3299;SDS011;1662;49.310;8.134;2023-07-13T14:08:42;9.80;;;6.63;;
3299;SDS011;1662;49.310;8.134;2023-07-13T14:11:12;6.60;;;6.20;;
3299;SDS011;1662;49.310;8.134;2023-07-13T14:13:47;6.60;;;6.40;;
3299;SDS011;1662;49.310;8.134;2023-07-13T14:16:24;6.73;;;6.30;;
3299;SDS011;1662;49.310;8.134;2023-07-13T14:18:53;6.80;;;6.50;;
3299;SDS011;1662;49.310;8.134;2023-07-13T14:21:21;6.67;;;6.37;;
3299;SDS011;1662;49.310;8.134;2023-07-13T14:23:48;6.97;;;6.57;;
3299;SDS011;1662;49.310;8.134;2023-07-13T14:26:20;7.43;;;6.80;;
3299;SDS011;1662;49.310;8.134;2023-07-13T14:28:49;8.23;;;7.60;;
3299;SDS011;1662;49.310;8.134;2023-07-13T14:31:20;7.30;;;7.00;;
3299;SDS011;1662;49.310;8.134;2023-07-13T14:33:47;7.03;;;6.63;;
3299;SDS011;1662;49.310;8.134;2023-07-13T14:38:54;6.57;;;6.37;;
3299;SDS011;1662;49.310;8.134;2023-07-13T14:41:24;6.17;;;5.97;;
3299;SDS011;1662;49.310;8.134;2023-07-13T14:43:50;7.27;;;6.83;;
3299;SDS011;1662;49.310;8.134;2023-07-13T14:46:33;7.40;;;6.80;;
3299;SDS011;1662;49.310;8.134;2023-07-13T14:49:01;6.27;;;6.10;;
3299;SDS011;1662;49.310;8.134;2023-07-13T14:51:40;6.80;;;6.50;;
3299;SDS011;1662;49.310;8.134;2023-07-13T14:54:07;7.30;;;6.87;;
3299;SDS011;1662;49.310;8.134;2023-07-13T14:56:36;7.10;;;6.70;;
3299;SDS011;1662;49.310;8.134;2023-07-13T14:59:03;8.73;;;6.77;;
3299;SDS011;1662;49.310;8.134;2023-07-13T15:01:29;7.53;;;7.17;;
3299;SDS011;1662;49.310;8.134;2023-07-13T15:03:56;6.70;;;6.50;;
3299;SDS011;1662;49.310;8.134;2023-07-13T15:06:23;6.80;;;6.50;;
3299;SDS011;1662;49.310;8.134;2023-07-13T15:08:49;6.37;;;6.17;;
3299;SDS011;1662;49.310;8.134;2023-07-13T15:11:15;6.83;;;6.60;;
3299;SDS011;1662;49.310;8.134;2023-07-13T15:13:43;7.30;;;6.80;;
3299;SDS011;1662;49.310;8.134;2023-07-13T15:16:28;8.00;;;7.20;;
3299;SDS011;1662;49.310;8.134;2023-07-13T15:18:53;7.50;;;7.10;;
3299;SDS011;1662;49.310;8.134;2023-07-13T15:21:20;7.27;;;6.87;;
3299;SDS011;1662;49.310;8.134;2023-07-13T15:23:48;7.37;;;6.90;;
3299;SDS011;1662;49.310;8.134;2023-07-13T15:26:16;7.17;;;6.70;;
3299;SDS011;1662;49.310;8.134;2023-07-13T15:28:44;7.63;;;7.07;;
3299;SDS011;1662;49.310;8.134;2023-07-13T15:31:21;7.60;;;7.10;;
3299;SDS011;1662;49.310;8.134;2023-07-13T15:33:52;6.80;;;6.57;;
3299;SDS011;1662;49.310;8.134;2023-07-13T15:36:20;7.03;;;6.73;;
3299;SDS011;1662;49.310;8.134;2023-07-13T15:38:47;7.60;;;6.93;;
3299;SDS011;1662;49.310;8.134;2023-07-13T15:41:25;7.23;;;6.93;;
3299;SDS011;1662;49.310;8.134;2023-07-13T15:43:54;7.43;;;6.83;;
3299;SDS011;1662;49.310;8.134;2023-07-13T15:46:25;6.90;;;6.57;;
3299;SDS011;1662;49.310;8.134;2023-07-13T15:48:57;7.30;;;7.00;;
3299;SDS011;1662;49.310;8.134;2023-07-13T15:51:27;9.00;;;6.57;;
3299;SDS011;1662;49.310;8.134;2023-07-13T15:53:56;7.80;;;7.40;;
3299;SDS011;1662;49.310;8.134;2023-07-13T15:56:26;6.43;;;6.23;;
3299;SDS011;1662;49.310;8.134;2023-07-13T15:58:53;6.87;;;6.57;;
3299;SDS011;1662;49.310;8.134;2023-07-13T16:01:21;5.97;;;5.53;;
3299;SDS011;1662;49.310;8.134;2023-07-13T16:03:47;7.10;;;6.60;;
3299;SDS011;1662;49.310;8.134;2023-07-13T16:06:15;7.03;;;6.60;;
3299;SDS011;1662;49.310;8.134;2023-07-13T16:08:47;7.30;;;7.10;;
3299;SDS011;1662;49.310;8.134;2023-07-13T16:11:18;7.77;;;7.03;;
3299;SDS011;1662;49.310;8.134;2023-07-13T16:13:47;7.27;;;6.77;;
3299;SDS011;1662;49.310;8.134;2023-07-13T16:16:20;6.90;;;6.70;;
3299;SDS011;1662;49.310;8.134;2023-07-13T16:18:53;6.67;;;6.37;;
3299;SDS011;1662;49.310;8.134;2023-07-13T16:21:20;6.20;;;6.00;;
3299;SDS011;1662;49.310;8.134;2023-07-13T16:23:54;6.57;;;5.93;;
3299;SDS011;1662;49.310;8.134;2023-07-13T16:29:20;6.07;;;5.67;;